SJX703 WIII-VTBS
Flight info
| Callsign | SJX703 |
|---|---|
| Flight time | N/A |
| Altitude | 40000 |
| Route | DOLTA G579 SJ B469 VPK M751 VKB M644 ALUMO Y12 ALEMI TUMGA1C |
| Aircraft | A359/H-SDE2E3GHIJ1J3J4J5LM1ORWXY/LB1D1 |
Departure
| Time | 2026-05-07 10:46 |
|---|---|
| Airport | Soekarno-Hatta International Airport (WIII) |
Arrival
| Time | N/A |
|---|---|
| Airport | Suvarnabhumi Airport (VTBS) |
| Time | Latitude | Longitude | Altitude | Speed | Heading |
|---|---|---|---|---|---|
| 2026-05-07 09:45 | -6.12023 | 106.65803 | 33 ft | 0 kts | 70° |
| 2026-05-07 10:32 | -6.12024 | 106.65802 | 34 ft | 1 kts | 70° |
| 2026-05-07 10:32 | -6.12032 | 106.65778 | 34 ft | 4 kts | 70° |
| 2026-05-07 10:32 | -6.12040 | 106.65755 | 33 ft | 2 kts | 70° |
| 2026-05-07 10:32 | -6.12052 | 106.65736 | 32 ft | 4 kts | 22° |
| 2026-05-07 10:33 | -6.12077 | 106.65734 | 32 ft | 4 kts | 343° |
| 2026-05-07 10:33 | -6.12101 | 106.65743 | 33 ft | 4 kts | 338° |
| 2026-05-07 10:33 | -6.12115 | 106.65749 | 32 ft | 0 kts | 338° |
| 2026-05-07 10:39 | -6.12094 | 106.65741 | 34 ft | 4 kts | 340° |
| 2026-05-07 10:39 | -6.12055 | 106.65727 | 34 ft | 7 kts | 340° |
| 2026-05-07 10:39 | -6.11998 | 106.65705 | 34 ft | 10 kts | 338° |
| 2026-05-07 10:40 | -6.11924 | 106.65676 | 34 ft | 13 kts | 338° |
| 2026-05-07 10:40 | -6.11834 | 106.65642 | 34 ft | 15 kts | 339° |
| 2026-05-07 10:40 | -6.11730 | 106.65599 | 34 ft | 17 kts | 336° |
| 2026-05-07 10:40 | -6.11655 | 106.65565 | 34 ft | 5 kts | 327° |
| 2026-05-07 10:41 | -6.11638 | 106.65529 | 34 ft | 7 kts | 276° |
| 2026-05-07 10:41 | -6.11651 | 106.65476 | 34 ft | 9 kts | 249° |
| 2026-05-07 10:41 | -6.11677 | 106.65410 | 34 ft | 11 kts | 249° |
| 2026-05-07 10:41 | -6.11709 | 106.65327 | 35 ft | 14 kts | 248° |
| 2026-05-07 10:42 | -6.11748 | 106.65232 | 35 ft | 16 kts | 248° |
| 2026-05-07 10:42 | -6.11793 | 106.65119 | 36 ft | 18 kts | 248° |
| 2026-05-07 10:42 | -6.11844 | 106.64993 | 36 ft | 20 kts | 248° |
| 2026-05-07 10:42 | -6.11900 | 106.64854 | 37 ft | 23 kts | 248° |
| 2026-05-07 10:43 | -6.11961 | 106.64701 | 37 ft | 24 kts | 248° |
| 2026-05-07 10:43 | -6.12012 | 106.64576 | 38 ft | 12 kts | 248° |
| 2026-05-07 10:43 | -6.12046 | 106.64487 | 37 ft | 15 kts | 249° |
| 2026-05-07 10:43 | -6.12087 | 106.64381 | 38 ft | 17 kts | 249° |
| 2026-05-07 10:44 | -6.12134 | 106.64262 | 39 ft | 20 kts | 247° |
| 2026-05-07 10:44 | -6.12189 | 106.64129 | 37 ft | 20 kts | 248° |
| 2026-05-07 10:44 | -6.12241 | 106.64003 | 40 ft | 20 kts | 248° |
| 2026-05-07 10:44 | -6.12240 | 106.63904 | 39 ft | 13 kts | 304° |
| 2026-05-07 10:45 | -6.12161 | 106.63882 | 41 ft | 13 kts | 20° |
| 2026-05-07 10:45 | -6.12079 | 106.63939 | 39 ft | 16 kts | 44° |
| 2026-05-07 10:45 | -6.12031 | 106.64039 | 39 ft | 19 kts | 69° |
| 2026-05-07 10:45 | -6.11916 | 106.64326 | 37 ft | 80 kts | 68° |
| 2026-05-07 10:46 | -6.11623 | 106.65057 | 37 ft | 144 kts | 68° |
| 2026-05-07 10:46 | -6.11209 | 106.66113 | 416 ft | 167 kts | 68° |
| 2026-05-07 10:46 | -6.10654 | 106.67128 | 1201 ft | 163 kts | 52° |
| 2026-05-07 10:46 | -6.09879 | 106.68029 | 1613 ft | 180 kts | 43° |
| 2026-05-07 10:47 | -6.08620 | 106.68410 | 1676 ft | 207 kts | 355° |
| 2026-05-07 10:47 | -6.07092 | 106.68318 | 1820 ft | 233 kts | 357° |
| 2026-05-07 10:47 | -6.05398 | 106.68098 | 2074 ft | 256 kts | 349° |
| 2026-05-07 10:47 | -6.04231 | 106.67720 | 2377 ft | 266 kts | 336° |
| 2026-05-07 10:48 | -6.02643 | 106.66716 | 2925 ft | 273 kts | 323° |
| 2026-05-07 10:48 | -6.01138 | 106.65536 | 3588 ft | 275 kts | 321° |
| 2026-05-07 10:48 | -5.99651 | 106.64320 | 4227 ft | 278 kts | 321° |
| 2026-05-07 10:48 | -5.98094 | 106.63149 | 4808 ft | 281 kts | 330° |
| 2026-05-07 10:49 | -5.96375 | 106.62202 | 5425 ft | 283 kts | 334° |
| 2026-05-07 10:49 | -5.94599 | 106.61319 | 6022 ft | 286 kts | 336° |
| 2026-05-07 10:49 | -5.92783 | 106.60475 | 6594 ft | 289 kts | 337° |
| 2026-05-07 10:49 | -5.90939 | 106.59650 | 7155 ft | 291 kts | 338° |
| 2026-05-07 10:50 | -5.89101 | 106.58838 | 7728 ft | 293 kts | 338° |
| 2026-05-07 10:50 | -5.87227 | 106.58012 | 8292 ft | 296 kts | 338° |
| 2026-05-07 10:50 | -5.85334 | 106.57174 | 8838 ft | 299 kts | 338° |
| 2026-05-07 10:50 | -5.83427 | 106.56326 | 9421 ft | 301 kts | 338° |
| 2026-05-07 10:51 | -5.81505 | 106.55467 | 9964 ft | 304 kts | 338° |
| 2026-05-07 10:51 | -5.79551 | 106.54592 | 10307 ft | 314 kts | 338° |
| 2026-05-07 10:51 | -5.77514 | 106.53681 | 10513 ft | 327 kts | 338° |
| 2026-05-07 10:51 | -5.75395 | 106.52732 | 10735 ft | 340 kts | 338° |
| 2026-05-07 10:52 | -5.73198 | 106.51746 | 10934 ft | 352 kts | 337° |
| 2026-05-07 10:52 | -5.70929 | 106.50729 | 11143 ft | 362 kts | 337° |
| 2026-05-07 10:52 | -5.68614 | 106.49690 | 11484 ft | 367 kts | 337° |
| 2026-05-07 10:52 | -5.66276 | 106.48640 | 11891 ft | 369 kts | 337° |
| 2026-05-07 10:53 | -5.63924 | 106.47584 | 12319 ft | 371 kts | 337° |
| 2026-05-07 10:53 | -5.61558 | 106.46523 | 12729 ft | 373 kts | 337° |
| 2026-05-07 10:53 | -5.59179 | 106.45456 | 13144 ft | 375 kts | 337° |
| 2026-05-07 10:53 | -5.56789 | 106.44385 | 13554 ft | 377 kts | 337° |
| 2026-05-07 10:54 | -5.54385 | 106.43307 | 13909 ft | 379 kts | 337° |
| 2026-05-07 10:54 | -5.51967 | 106.42224 | 14247 ft | 382 kts | 337° |
| 2026-05-07 10:54 | -5.49537 | 106.41135 | 14597 ft | 384 kts | 337° |
| 2026-05-07 10:54 | -5.47095 | 106.40042 | 14958 ft | 385 kts | 337° |
| 2026-05-07 10:55 | -5.44638 | 106.38941 | 15286 ft | 388 kts | 337° |
| 2026-05-07 10:55 | -5.42167 | 106.37833 | 15639 ft | 390 kts | 338° |
| 2026-05-07 10:55 | -5.39680 | 106.36720 | 15989 ft | 392 kts | 337° |
| 2026-05-07 10:55 | -5.37187 | 106.35603 | 16345 ft | 393 kts | 338° |
| 2026-05-07 10:56 | -5.34680 | 106.34481 | 16679 ft | 396 kts | 337° |
| 2026-05-07 10:56 | -5.32159 | 106.33352 | 17028 ft | 397 kts | 337° |
| 2026-05-07 10:56 | -5.29629 | 106.32220 | 17375 ft | 399 kts | 337° |
| 2026-05-07 10:56 | -5.27089 | 106.31083 | 17719 ft | 401 kts | 337° |
| 2026-05-07 10:57 | -5.24535 | 106.29940 | 18032 ft | 403 kts | 337° |
| 2026-05-07 10:57 | -5.21965 | 106.28789 | 18327 ft | 405 kts | 337° |
| 2026-05-07 10:57 | -5.19388 | 106.27637 | 18629 ft | 406 kts | 337° |
| 2026-05-07 10:57 | -5.16803 | 106.26479 | 18915 ft | 408 kts | 337° |
| 2026-05-07 10:58 | -5.14204 | 106.25316 | 19183 ft | 410 kts | 337° |
| 2026-05-07 10:58 | -5.11593 | 106.24148 | 19482 ft | 411 kts | 337° |
| 2026-05-07 10:58 | -5.08976 | 106.22977 | 19775 ft | 412 kts | 338° |
| 2026-05-07 10:58 | -5.06351 | 106.21803 | 20050 ft | 414 kts | 338° |
| 2026-05-07 10:59 | -5.03716 | 106.20624 | 20318 ft | 416 kts | 337° |
| 2026-05-07 10:59 | -5.01070 | 106.19442 | 20607 ft | 417 kts | 337° |
| 2026-05-07 10:59 | -4.98412 | 106.18257 | 20874 ft | 419 kts | 338° |
| 2026-05-07 10:59 | -4.95749 | 106.17067 | 21133 ft | 420 kts | 338° |
| 2026-05-07 11:00 | -4.93072 | 106.15869 | 21392 ft | 422 kts | 338° |
| 2026-05-07 11:00 | -4.90423 | 106.14682 | 21652 ft | 423 kts | 337° |
| 2026-05-07 11:00 | -4.87732 | 106.13477 | 21921 ft | 425 kts | 337° |
| 2026-05-07 11:00 | -4.85029 | 106.12267 | 22166 ft | 426 kts | 338° |
| 2026-05-07 11:01 | -4.82319 | 106.11055 | 22426 ft | 428 kts | 337° |
| 2026-05-07 11:01 | -4.79595 | 106.09837 | 22682 ft | 429 kts | 338° |
| 2026-05-07 11:01 | -4.76862 | 106.08616 | 22925 ft | 431 kts | 338° |
| 2026-05-07 11:01 | -4.74120 | 106.07390 | 23192 ft | 432 kts | 338° |
| 2026-05-07 11:02 | -4.71365 | 106.06188 | 23415 ft | 432 kts | 341° |
| 2026-05-07 11:02 | -4.68465 | 106.05436 | 23608 ft | 431 kts | 352° |
| 2026-05-07 11:02 | -4.65497 | 106.05031 | 23819 ft | 431 kts | 355° |
| 2026-05-07 11:02 | -4.62506 | 106.04739 | 23982 ft | 433 kts | 356° |
| 2026-05-07 11:03 | -4.59512 | 106.04443 | 24194 ft | 434 kts | 355° |
| 2026-05-07 11:03 | -4.56516 | 106.04098 | 24395 ft | 435 kts | 354° |
| 2026-05-07 11:03 | -4.53492 | 106.03695 | 24590 ft | 437 kts | 354° |
| 2026-05-07 11:03 | -4.50485 | 106.03252 | 24819 ft | 437 kts | 353° |
| 2026-05-07 11:04 | -4.47469 | 106.02783 | 24987 ft | 440 kts | 352° |
| 2026-05-07 11:04 | -4.44445 | 106.02300 | 25180 ft | 441 kts | 353° |
| 2026-05-07 11:04 | -4.41412 | 106.01811 | 25387 ft | 442 kts | 352° |
| 2026-05-07 11:04 | -4.38371 | 106.01321 | 25560 ft | 444 kts | 352° |
| 2026-05-07 11:05 | -4.35321 | 106.00830 | 25783 ft | 444 kts | 352° |
| 2026-05-07 11:05 | -4.32258 | 106.00341 | 25962 ft | 446 kts | 352° |
| 2026-05-07 11:05 | -4.29187 | 105.99852 | 26158 ft | 448 kts | 353° |
| 2026-05-07 11:05 | -4.26108 | 105.99363 | 26391 ft | 448 kts | 353° |
| 2026-05-07 11:06 | -4.23023 | 105.98874 | 26597 ft | 450 kts | 353° |
| 2026-05-07 11:06 | -4.19924 | 105.98384 | 26809 ft | 451 kts | 353° |
| 2026-05-07 11:06 | -4.16819 | 105.97892 | 27015 ft | 453 kts | 352° |
| 2026-05-07 11:06 | -4.13699 | 105.97398 | 27219 ft | 454 kts | 353° |
| 2026-05-07 11:07 | -4.10574 | 105.96902 | 27440 ft | 456 kts | 353° |
| 2026-05-07 11:07 | -4.07436 | 105.96405 | 27639 ft | 458 kts | 352° |
| 2026-05-07 11:07 | -4.04287 | 105.95905 | 27871 ft | 459 kts | 353° |
| 2026-05-07 11:07 | -4.01126 | 105.95404 | 28050 ft | 461 kts | 352° |
| 2026-05-07 11:08 | -3.97947 | 105.94900 | 28230 ft | 464 kts | 352° |
| 2026-05-07 11:08 | -3.94753 | 105.94393 | 28459 ft | 465 kts | 352° |
| 2026-05-07 11:08 | -3.91554 | 105.93886 | 28674 ft | 467 kts | 352° |
| 2026-05-07 11:08 | -3.88387 | 105.93384 | 28893 ft | 468 kts | 352° |
| 2026-05-07 11:09 | -3.85120 | 105.92866 | 29105 ft | 470 kts | 352° |
| 2026-05-07 11:09 | -3.81935 | 105.92361 | 29313 ft | 471 kts | 352° |
| 2026-05-07 11:09 | -3.78688 | 105.91847 | 29533 ft | 473 kts | 352° |
| 2026-05-07 11:09 | -3.75391 | 105.91324 | 29748 ft | 475 kts | 352° |
| 2026-05-07 11:10 | -3.72166 | 105.90813 | 29951 ft | 476 kts | 352° |
| 2026-05-07 11:10 | -3.68891 | 105.90294 | 30150 ft | 477 kts | 352° |
| 2026-05-07 11:10 | -3.65604 | 105.89773 | 30353 ft | 479 kts | 352° |
| 2026-05-07 11:10 | -3.62304 | 105.89251 | 30519 ft | 481 kts | 352° |
| 2026-05-07 11:11 | -3.58993 | 105.88726 | 30709 ft | 483 kts | 352° |
| 2026-05-07 11:11 | -3.55666 | 105.88199 | 30940 ft | 484 kts | 352° |
| 2026-05-07 11:11 | -3.52332 | 105.87671 | 31140 ft | 486 kts | 352° |
| 2026-05-07 11:11 | -3.48993 | 105.87142 | 31357 ft | 487 kts | 352° |
| 2026-05-07 11:12 | -3.45638 | 105.86611 | 31578 ft | 488 kts | 352° |
| 2026-05-07 11:12 | -3.42331 | 105.85827 | 31714 ft | 492 kts | 341° |
| 2026-05-07 11:12 | -3.39174 | 105.84487 | 31921 ft | 494 kts | 335° |
| 2026-05-07 11:12 | -3.36098 | 105.82934 | 32103 ft | 496 kts | 333° |
| 2026-05-07 11:13 | -3.33039 | 105.81340 | 32291 ft | 497 kts | 333° |
| 2026-05-07 11:13 | -3.29950 | 105.79776 | 32476 ft | 498 kts | 334° |
| 2026-05-07 11:13 | -3.26826 | 105.78262 | 32653 ft | 499 kts | 336° |
| 2026-05-07 11:13 | -3.23675 | 105.76796 | 32839 ft | 500 kts | 336° |
| 2026-05-07 11:14 | -3.20503 | 105.75360 | 33005 ft | 502 kts | 337° |
| 2026-05-07 11:14 | -3.17311 | 105.73937 | 33168 ft | 503 kts | 337° |
| 2026-05-07 11:14 | -3.14106 | 105.72517 | 33340 ft | 504 kts | 337° |
| 2026-05-07 11:14 | -3.10899 | 105.71097 | 33508 ft | 505 kts | 337° |
| 2026-05-07 11:15 | -3.07681 | 105.69671 | 33676 ft | 507 kts | 337° |
| 2026-05-07 11:15 | -3.04452 | 105.68237 | 33829 ft | 508 kts | 337° |
| 2026-05-07 11:15 | -3.01219 | 105.66800 | 34001 ft | 508 kts | 336° |
| 2026-05-07 11:15 | -2.97992 | 105.65364 | 34225 ft | 507 kts | 337° |
| 2026-05-07 11:16 | -2.94773 | 105.63930 | 34465 ft | 506 kts | 336° |
| 2026-05-07 11:16 | -2.91557 | 105.62499 | 34689 ft | 507 kts | 337° |
| 2026-05-07 11:16 | -2.88317 | 105.61096 | 34827 ft | 508 kts | 338° |
| 2026-05-07 11:16 | -2.85040 | 105.59765 | 35074 ft | 507 kts | 339° |
| 2026-05-07 11:17 | -2.81755 | 105.58493 | 35345 ft | 506 kts | 340° |
| 2026-05-07 11:17 | -2.78474 | 105.57242 | 35623 ft | 505 kts | 340° |
| 2026-05-07 11:17 | -2.75194 | 105.55993 | 35830 ft | 506 kts | 340° |
| 2026-05-07 11:17 | -2.71899 | 105.54729 | 35944 ft | 508 kts | 340° |
| 2026-05-07 11:18 | -2.68598 | 105.53455 | 36107 ft | 509 kts | 339° |
| 2026-05-07 11:18 | -2.65298 | 105.52173 | 36336 ft | 508 kts | 339° |
| 2026-05-07 11:18 | -2.62008 | 105.50890 | 36551 ft | 508 kts | 340° |
| 2026-05-07 11:18 | -2.58717 | 105.49606 | 36776 ft | 507 kts | 340° |
| 2026-05-07 11:19 | -2.55432 | 105.48323 | 37046 ft | 506 kts | 340° |
| 2026-05-07 11:19 | -2.52160 | 105.47050 | 37329 ft | 504 kts | 340° |
| 2026-05-07 11:19 | -2.48896 | 105.45777 | 37575 ft | 503 kts | 340° |
| 2026-05-07 11:19 | -2.45635 | 105.44503 | 37808 ft | 503 kts | 340° |
| 2026-05-07 11:20 | -2.42380 | 105.43230 | 38043 ft | 502 kts | 340° |
| 2026-05-07 11:20 | -2.39136 | 105.41963 | 38264 ft | 501 kts | 340° |
| 2026-05-07 11:20 | -2.35886 | 105.40694 | 38500 ft | 500 kts | 340° |
| 2026-05-07 11:20 | -2.32688 | 105.39445 | 38687 ft | 500 kts | 340° |
| 2026-05-07 11:21 | -2.29449 | 105.38181 | 38868 ft | 499 kts | 340° |
| 2026-05-07 11:21 | -2.26218 | 105.36921 | 39055 ft | 499 kts | 340° |
| 2026-05-07 11:21 | -2.22989 | 105.35661 | 39228 ft | 498 kts | 340° |
| 2026-05-07 11:21 | -2.19762 | 105.34403 | 39395 ft | 498 kts | 339° |
| 2026-05-07 11:22 | -2.13262 | 105.31869 | 39515 ft | 503 kts | 339° |
| 2026-05-07 11:22 | -2.10005 | 105.30598 | 39686 ft | 502 kts | 340° |
| 2026-05-07 11:22 | -2.06756 | 105.29331 | 39789 ft | 502 kts | 339° |
| 2026-05-07 11:23 | -2.00260 | 105.26798 | 39812 ft | 499 kts | 339° |
| 2026-05-07 11:23 | -1.93794 | 105.24277 | 39812 ft | 499 kts | 339° |
| 2026-05-07 11:24 | -1.87328 | 105.21756 | 39813 ft | 499 kts | 339° |
| 2026-05-07 11:24 | -1.80863 | 105.19235 | 39812 ft | 500 kts | 339° |
| 2026-05-07 11:25 | -1.74366 | 105.16703 | 39816 ft | 502 kts | 339° |
| 2026-05-07 11:25 | -1.67865 | 105.14169 | 39815 ft | 502 kts | 339° |
| 2026-05-07 11:26 | -1.61361 | 105.11634 | 39813 ft | 501 kts | 339° |
| 2026-05-07 11:26 | -1.54860 | 105.09101 | 39813 ft | 502 kts | 339° |
| 2026-05-07 11:27 | -1.48358 | 105.06567 | 39813 ft | 501 kts | 339° |
| 2026-05-07 11:27 | -1.41848 | 105.04030 | 39810 ft | 503 kts | 339° |
| 2026-05-07 11:28 | -1.35326 | 105.01488 | 39809 ft | 503 kts | 339° |
| 2026-05-07 11:28 | -1.28804 | 104.98947 | 39807 ft | 503 kts | 339° |
| 2026-05-07 11:29 | -1.22279 | 104.96404 | 39810 ft | 503 kts | 339° |
| 2026-05-07 11:29 | -1.15753 | 104.93862 | 39810 ft | 503 kts | 339° |
| 2026-05-07 11:30 | -1.09232 | 104.91321 | 39807 ft | 503 kts | 339° |
| 2026-05-07 11:30 | -1.02721 | 104.88785 | 39809 ft | 501 kts | 339° |
| 2026-05-07 11:31 | -0.96225 | 104.86254 | 39807 ft | 501 kts | 339° |
| 2026-05-07 11:31 | -0.89728 | 104.83724 | 39807 ft | 501 kts | 339° |
| 2026-05-07 11:32 | -0.80027 | 104.79945 | 39809 ft | 501 kts | 339° |
| 2026-05-07 11:33 | -0.73530 | 104.77415 | 39806 ft | 501 kts | 339° |
| 2026-05-07 11:33 | -0.67029 | 104.74883 | 39808 ft | 502 kts | 339° |
| 2026-05-07 11:34 | -0.60527 | 104.72350 | 39806 ft | 501 kts | 339° |
| 2026-05-07 11:34 | -0.55120 | 104.70245 | 39807 ft | 502 kts | 339° |
| 2026-05-07 11:35 | -0.48616 | 104.67712 | 39810 ft | 502 kts | 339° |
| 2026-05-07 11:35 | -0.42114 | 104.65180 | 39810 ft | 502 kts | 339° |
| 2026-05-07 11:36 | -0.35611 | 104.62650 | 39803 ft | 502 kts | 339° |
| 2026-05-07 11:36 | -0.29107 | 104.60117 | 39810 ft | 502 kts | 339° |
| 2026-05-07 11:37 | -0.22598 | 104.57580 | 39809 ft | 502 kts | 339° |
| 2026-05-07 11:37 | -0.16092 | 104.55045 | 39807 ft | 502 kts | 339° |
| 2026-05-07 11:38 | -0.09584 | 104.52511 | 39804 ft | 502 kts | 339° |
| 2026-05-07 11:38 | -0.03076 | 104.49976 | 39807 ft | 502 kts | 339° |
| 2026-05-07 11:39 | 0.03429 | 104.47443 | 39800 ft | 503 kts | 339° |
| 2026-05-07 11:39 | 0.09963 | 104.44899 | 39802 ft | 504 kts | 339° |
| 2026-05-07 11:40 | 0.16502 | 104.42352 | 39799 ft | 505 kts | 339° |
| 2026-05-07 11:40 | 0.23044 | 104.39805 | 39801 ft | 505 kts | 339° |
| 2026-05-07 11:41 | 0.29586 | 104.37257 | 39804 ft | 505 kts | 339° |
| 2026-05-07 11:41 | 0.36134 | 104.34707 | 39804 ft | 505 kts | 339° |
| 2026-05-07 11:42 | 0.42679 | 104.32164 | 39807 ft | 505 kts | 339° |
| 2026-05-07 11:42 | 0.49218 | 104.29616 | 39807 ft | 505 kts | 339° |
| 2026-05-07 11:43 | 0.55759 | 104.27066 | 39807 ft | 505 kts | 339° |
| 2026-05-07 11:43 | 0.62304 | 104.24516 | 39807 ft | 505 kts | 339° |
| 2026-05-07 11:44 | 0.68847 | 104.21973 | 39809 ft | 505 kts | 339° |
| 2026-05-07 11:44 | 0.75382 | 104.19427 | 39811 ft | 504 kts | 339° |
| 2026-05-07 11:45 | 0.81909 | 104.16882 | 39808 ft | 503 kts | 339° |
| 2026-05-07 11:45 | 0.88428 | 104.14344 | 39807 ft | 503 kts | 339° |
| 2026-05-07 11:46 | 0.94945 | 104.11803 | 39807 ft | 503 kts | 339° |
| 2026-05-07 11:46 | 1.01459 | 104.09264 | 39802 ft | 503 kts | 339° |
| 2026-05-07 11:47 | 1.07978 | 104.06730 | 39800 ft | 503 kts | 339° |
| 2026-05-07 11:47 | 1.14453 | 104.04209 | 39804 ft | 503 kts | 339° |
| 2026-05-07 11:48 | 1.20963 | 104.01668 | 39802 ft | 502 kts | 339° |
| 2026-05-07 11:48 | 1.27478 | 103.99136 | 39801 ft | 502 kts | 339° |
| 2026-05-07 11:49 | 1.33987 | 103.96602 | 39801 ft | 502 kts | 339° |
| 2026-05-07 11:49 | 1.40522 | 103.94146 | 39801 ft | 502 kts | 344° |
| 2026-05-07 11:50 | 1.47388 | 103.93005 | 39773 ft | 500 kts | 355° |
| 2026-05-07 11:50 | 1.54324 | 103.92503 | 39777 ft | 500 kts | 357° |
| 2026-05-07 11:51 | 1.61259 | 103.92102 | 39782 ft | 499 kts | 358° |
| 2026-05-07 11:51 | 1.68197 | 103.91680 | 39783 ft | 499 kts | 357° |
| 2026-05-07 11:52 | 1.75135 | 103.91278 | 39780 ft | 499 kts | 1° |
| 2026-05-07 11:52 | 1.82078 | 103.91361 | 39789 ft | 499 kts | 2° |
| 2026-05-07 11:53 | 1.89007 | 103.91549 | 39790 ft | 497 kts | 2° |
| 2026-05-07 11:53 | 1.95922 | 103.91280 | 39793 ft | 497 kts | 356° |
| 2026-05-07 11:54 | 2.02808 | 103.90665 | 39798 ft | 497 kts | 355° |
| 2026-05-07 11:54 | 2.09696 | 103.89989 | 39796 ft | 497 kts | 355° |
| 2026-05-07 11:55 | 2.16583 | 103.89313 | 39797 ft | 497 kts | 355° |
| 2026-05-07 11:55 | 2.23467 | 103.88646 | 39800 ft | 497 kts | 355° |
| 2026-05-07 11:56 | 2.30342 | 103.87985 | 39800 ft | 496 kts | 355° |
| 2026-05-07 11:56 | 2.37192 | 103.87176 | 39803 ft | 497 kts | 349° |
| 2026-05-07 11:57 | 2.43730 | 103.84951 | 39803 ft | 497 kts | 337° |
| 2026-05-07 11:57 | 2.50056 | 103.82124 | 39801 ft | 498 kts | 336° |
| 2026-05-07 11:58 | 2.56300 | 103.79222 | 39798 ft | 498 kts | 335° |
| 2026-05-07 11:58 | 2.62626 | 103.76297 | 39799 ft | 498 kts | 335° |
| 2026-05-07 11:59 | 2.68930 | 103.73405 | 39799 ft | 498 kts | 335° |
| 2026-05-07 11:59 | 2.75234 | 103.70532 | 39799 ft | 498 kts | 336° |
| 2026-05-07 12:00 | 2.81516 | 103.67720 | 39801 ft | 498 kts | 336° |